Terminal Aerodrome Forecast
Issued by NWS Tulsa, OK

Home | Current Version | Previous Version | Text Only | Print | Product List | Glossary On
Versions: 1 2 3 4 5 6 7 8 9 10 11 12 13 14 15
000
FTUS44 KTSA 221720
TAFTUL
TAF
KTUL 221720Z 2218/2318 18012G19KT P6SM FEW035 FEW250
     FM230100 16006KT P6SM SCT250
     FM231500 17009KT P6SM FEW035=

USA.gov is the U.S. government's official web portal to all federal, state and local government web resources and services.